Airfield :
LOGIN :

Register | Disclaimer

   EN    FR    IT 

 










Legend :    VFR   Marginal VFR   IFR   Intensive IFR   Very Intensive IFR
Visi :
Ceiling :
>= 8 km
>= 3000ft
5 to 8 km
1000 to 3000 ft
1500m to 5 km
500 to 1000 ft
800 to 1500m
200 to 500 ft
< 800m
< 200 ft
Symbols :   Thunderstorms  Fog  Heavy snow  Heavy precipitations  Wind > 20 kt
SIGMETs :     Misc.  Thunderstorms  Icing  Turbulence  Mountain Waves  Volcanic Ashes






- Airport Elevation : 436 ft
- IATA code : ANG


LFBU - Angoulême Brie Champniers

CURRENT METAR :
  • 121330Z AUTO 24006KT 190V280 9999 SCT025/// SCT033/// BKN052/// ///TCU 12/08 Q1008 TEMPO 4000 -SHRA

EXPIRED METARs :
  • 121300Z AUTO 23006KT 200V280 9999 FEW017 SCT024 OVC034 11/07 Q1009 TEMPO 4000 -SHRA SCT013 BKN030TCU
  • 121230Z AUTO 23006KT 200V260 9999 FEW015 BKN023 BKN032 11/07 Q1009 TEMPO 4000 -SHRA SCT013 BKN030TCU
  • 121200Z AUTO 21005KT 170V250 9999 FEW015 BKN062 OVC072 11/08 Q1009 TEMPO 4000 -SHRA SCT013 BKN030TCU
  • 121130Z AUTO 24004KT 210V270 9999 FEW010 BKN043 BKN050 10/08 Q1010 TEMPO 4000 -SHRA SCT005 BKN030TCU
  • 121100Z AUTO 23004KT 190V250 9999 FEW043 BKN052 10/08 Q1010 TEMPO 4000 -SHRA SCT005 BKN030TCU

TAF TAF LFBU
Valid from the 12 at 12:00 until the 13 at 12:00 UTC


121100Z 1212/1312 26010KT 9999 SCT040
TEMPO 1212/1220 4000 -SHRA SCT013 BKN030TCU
BECMG 1220/1222 VRB02KT
PROB40 1223/1310 4000 BR BKN003
PROB30 1303/1308 0500 FG VV///
BECMG 1310/1312 23010KT



MET'MAP, your aeronautical weather chart ! - Copyright ORBIFLY December 2007 - Disclaimer

ORBIFLY MET'MAP TEAM :

Programming & Development : Alexandra Zaïnal
Concept & Development : Baudouin d'Aumeries
Co-Development & Prog : Marc-Olivier Méhu
Technical & hardware support : Manuel Goepfert

Contact : metmap@orbifly.com




SOURCES & CREDITS :

   NOAA